sensor_id;sensor_type;location;lat;lon;timestamp;P1;durP1;ratioP1;P2;durP2;ratioP2
6463;SDS011;3265;42.694;23.282;2023-07-09T00:02:12;9.68;;;4.82;;
6463;SDS011;3265;42.694;23.282;2023-07-09T00:04:40;9.07;;;4.78;;
6463;SDS011;3265;42.694;23.282;2023-07-09T00:07:11;9.50;;;4.10;;
6463;SDS011;3265;42.694;23.282;2023-07-09T00:09:42;9.88;;;4.30;;
6463;SDS011;3265;42.694;23.282;2023-07-09T00:12:10;10.82;;;4.25;;
6463;SDS011;3265;42.694;23.282;2023-07-09T00:14:39;5.93;;;4.15;;
6463;SDS011;3265;42.694;23.282;2023-07-09T00:17:07;7.30;;;4.00;;
6463;SDS011;3265;42.694;23.282;2023-07-09T00:19:36;9.27;;;4.03;;
6463;SDS011;3265;42.694;23.282;2023-07-09T00:22:04;8.93;;;4.00;;
6463;SDS011;3265;42.694;23.282;2023-07-09T00:24:42;7.35;;;3.80;;
6463;SDS011;3265;42.694;23.282;2023-07-09T00:27:10;6.00;;;3.95;;
6463;SDS011;3265;42.694;23.282;2023-07-09T00:29:37;10.88;;;4.07;;
6463;SDS011;3265;42.694;23.282;2023-07-09T00:32:07;7.75;;;4.30;;
6463;SDS011;3265;42.694;23.282;2023-07-09T00:34:40;8.70;;;4.50;;
6463;SDS011;3265;42.694;23.282;2023-07-09T00:37:10;6.72;;;3.92;;
6463;SDS011;3265;42.694;23.282;2023-07-09T00:39:39;5.57;;;4.03;;
6463;SDS011;3265;42.694;23.282;2023-07-09T00:42:09;12.25;;;4.05;;
6463;SDS011;3265;42.694;23.282;2023-07-09T00:44:40;15.48;;;4.60;;
6463;SDS011;3265;42.694;23.282;2023-07-09T00:47:25;7.15;;;3.95;;
6463;SDS011;3265;42.694;23.282;2023-07-09T00:50:05;6.80;;;3.72;;
6463;SDS011;3265;42.694;23.282;2023-07-09T00:52:37;11.10;;;3.90;;
6463;SDS011;3265;42.694;23.282;2023-07-09T00:55:12;6.65;;;3.78;;
6463;SDS011;3265;42.694;23.282;2023-07-09T00:57:44;9.60;;;4.13;;
6463;SDS011;3265;42.694;23.282;2023-07-09T01:00:21;8.35;;;4.00;;
6463;SDS011;3265;42.694;23.282;2023-07-09T01:02:49;4.68;;;3.58;;
6463;SDS011;3265;42.694;23.282;2023-07-09T01:05:16;8.13;;;4.22;;
6463;SDS011;3265;42.694;23.282;2023-07-09T01:07:45;6.65;;;3.80;;
6463;SDS011;3265;42.694;23.282;2023-07-09T01:10:14;6.38;;;3.70;;
6463;SDS011;3265;42.694;23.282;2023-07-09T01:12:43;9.18;;;4.05;;
6463;SDS011;3265;42.694;23.282;2023-07-09T01:15:12;8.27;;;4.10;;
6463;SDS011;3265;42.694;23.282;2023-07-09T01:17:40;4.75;;;3.83;;
6463;SDS011;3265;42.694;23.282;2023-07-09T01:20:14;5.90;;;3.90;;
6463;SDS011;3265;42.694;23.282;2023-07-09T01:22:47;6.90;;;3.78;;
6463;SDS011;3265;42.694;23.282;2023-07-09T01:25:15;8.15;;;3.88;;
6463;SDS011;3265;42.694;23.282;2023-07-09T01:27:45;7.20;;;3.72;;
6463;SDS011;3265;42.694;23.282;2023-07-09T01:30:27;7.70;;;3.50;;
6463;SDS011;3265;42.694;23.282;2023-07-09T01:32:59;7.38;;;3.47;;
6463;SDS011;3265;42.694;23.282;2023-07-09T01:35:28;5.80;;;3.90;;
6463;SDS011;3265;42.694;23.282;2023-07-09T01:37:58;7.30;;;3.78;;
6463;SDS011;3265;42.694;23.282;2023-07-09T01:40:26;5.68;;;4.00;;
6463;SDS011;3265;42.694;23.282;2023-07-09T01:43:04;8.13;;;4.38;;
6463;SDS011;3265;42.694;23.282;2023-07-09T01:45:35;5.35;;;3.88;;
6463;SDS011;3265;42.694;23.282;2023-07-09T01:48:03;9.05;;;4.00;;
6463;SDS011;3265;42.694;23.282;2023-07-09T01:50:30;10.13;;;4.32;;
6463;SDS011;3265;42.694;23.282;2023-07-09T01:52:58;12.80;;;4.30;;
6463;SDS011;3265;42.694;23.282;2023-07-09T01:55:26;10.45;;;4.18;;
6463;SDS011;3265;42.694;23.282;2023-07-09T01:57:55;5.60;;;4.05;;
6463;SDS011;3265;42.694;23.282;2023-07-09T02:00:21;12.32;;;4.32;;
6463;SDS011;3265;42.694;23.282;2023-07-09T02:02:48;8.27;;;3.95;;
6463;SDS011;3265;42.694;23.282;2023-07-09T02:05:15;7.53;;;4.30;;
6463;SDS011;3265;42.694;23.282;2023-07-09T02:07:43;7.18;;;3.92;;
6463;SDS011;3265;42.694;23.282;2023-07-09T02:10:13;6.15;;;4.18;;
6463;SDS011;3265;42.694;23.282;2023-07-09T02:12:41;5.88;;;3.88;;
6463;SDS011;3265;42.694;23.282;2023-07-09T02:15:08;7.57;;;4.60;;
6463;SDS011;3265;42.694;23.282;2023-07-09T02:17:36;7.53;;;4.32;;
6463;SDS011;3265;42.694;23.282;2023-07-09T02:20:03;8.57;;;4.43;;
6463;SDS011;3265;42.694;23.282;2023-07-09T02:22:32;7.72;;;4.00;;
6463;SDS011;3265;42.694;23.282;2023-07-09T02:24:58;12.18;;;4.47;;
6463;SDS011;3265;42.694;23.282;2023-07-09T02:27:27;10.50;;;4.32;;
6463;SDS011;3265;42.694;23.282;2023-07-09T02:29:54;12.15;;;4.40;;
6463;SDS011;3265;42.694;23.282;2023-07-09T02:32:21;7.93;;;4.95;;
6463;SDS011;3265;42.694;23.282;2023-07-09T02:34:51;11.77;;;5.32;;
6463;SDS011;3265;42.694;23.282;2023-07-09T02:37:19;13.15;;;5.47;;
6463;SDS011;3265;42.694;23.282;2023-07-09T02:39:47;11.68;;;5.28;;
6463;SDS011;3265;42.694;23.282;2023-07-09T02:42:14;10.00;;;4.70;;
6463;SDS011;3265;42.694;23.282;2023-07-09T02:44:44;10.77;;;4.95;;
6463;SDS011;3265;42.694;23.282;2023-07-09T02:47:12;8.38;;;4.60;;
6463;SDS011;3265;42.694;23.282;2023-07-09T02:49:39;9.00;;;4.93;;
6463;SDS011;3265;42.694;23.282;2023-07-09T02:52:07;7.90;;;4.82;;
6463;SDS011;3265;42.694;23.282;2023-07-09T02:54:34;8.35;;;4.53;;
6463;SDS011;3265;42.694;23.282;2023-07-09T02:57:01;11.82;;;4.85;;
6463;SDS011;3265;42.694;23.282;2023-07-09T02:59:28;10.05;;;5.03;;
6463;SDS011;3265;42.694;23.282;2023-07-09T03:01:56;10.80;;;5.30;;
6463;SDS011;3265;42.694;23.282;2023-07-09T03:04:23;9.07;;;5.05;;
6463;SDS011;3265;42.694;23.282;2023-07-09T03:06:50;9.25;;;5.75;;
6463;SDS011;3265;42.694;23.282;2023-07-09T03:09:18;19.83;;;13.55;;
6463;SDS011;3265;42.694;23.282;2023-07-09T03:11:45;23.45;;;16.80;;
6463;SDS011;3265;42.694;23.282;2023-07-09T03:14:12;19.40;;;9.82;;
6463;SDS011;3265;42.694;23.282;2023-07-09T03:16:39;15.02;;;10.35;;
6463;SDS011;3265;42.694;23.282;2023-07-09T03:19:07;15.93;;;9.25;;
6463;SDS011;3265;42.694;23.282;2023-07-09T03:21:34;15.27;;;7.20;;
6463;SDS011;3265;42.694;23.282;2023-07-09T03:24:01;9.07;;;5.22;;
6463;SDS011;3265;42.694;23.282;2023-07-09T03:26:28;11.50;;;5.00;;
6463;SDS011;3265;42.694;23.282;2023-07-09T03:28:55;11.88;;;4.82;;
6463;SDS011;3265;42.694;23.282;2023-07-09T03:31:22;11.02;;;4.93;;
6463;SDS011;3265;42.694;23.282;2023-07-09T03:33:49;8.57;;;4.72;;
6463;SDS011;3265;42.694;23.282;2023-07-09T03:36:18;11.13;;;5.00;;
6463;SDS011;3265;42.694;23.282;2023-07-09T03:38:46;10.30;;;5.22;;
6463;SDS011;3265;42.694;23.282;2023-07-09T03:41:13;10.35;;;5.07;;
6463;SDS011;3265;42.694;23.282;2023-07-09T03:43:40;14.68;;;5.55;;
6463;SDS011;3265;42.694;23.282;2023-07-09T03:46:06;11.50;;;5.00;;
6463;SDS011;3265;42.694;23.282;2023-07-09T03:48:33;10.77;;;4.90;;
6463;SDS011;3265;42.694;23.282;2023-07-09T03:51:00;16.15;;;5.13;;
6463;SDS011;3265;42.694;23.282;2023-07-09T03:53:28;19.92;;;5.68;;
6463;SDS011;3265;42.694;23.282;2023-07-09T03:55:56;10.27;;;5.53;;
6463;SDS011;3265;42.694;23.282;2023-07-09T03:58:25;12.35;;;4.97;;
6463;SDS011;3265;42.694;23.282;2023-07-09T04:00:52;12.30;;;5.53;;
6463;SDS011;3265;42.694;23.282;2023-07-09T04:03:24;17.85;;;5.60;;
6463;SDS011;3265;42.694;23.282;2023-07-09T04:05:51;12.90;;;5.65;;
6463;SDS011;3265;42.694;23.282;2023-07-09T04:08:18;12.70;;;5.40;;
6463;SDS011;3265;42.694;23.282;2023-07-09T04:10:46;17.95;;;5.38;;
6463;SDS011;3265;42.694;23.282;2023-07-09T04:13:13;15.95;;;5.30;;
6463;SDS011;3265;42.694;23.282;2023-07-09T04:15:40;16.75;;;5.25;;
6463;SDS011;3265;42.694;23.282;2023-07-09T04:18:06;12.55;;;5.78;;
6463;SDS011;3265;42.694;23.282;2023-07-09T04:20:33;11.88;;;5.43;;
6463;SDS011;3265;42.694;23.282;2023-07-09T04:23:01;13.77;;;5.38;;
6463;SDS011;3265;42.694;23.282;2023-07-09T04:25:28;14.15;;;5.45;;
6463;SDS011;3265;42.694;23.282;2023-07-09T04:27:56;10.93;;;4.97;;
6463;SDS011;3265;42.694;23.282;2023-07-09T04:30:24;14.10;;;5.40;;
6463;SDS011;3265;42.694;23.282;2023-07-09T04:32:51;13.73;;;4.85;;
6463;SDS011;3265;42.694;23.282;2023-07-09T04:35:18;10.57;;;5.53;;
6463;SDS011;3265;42.694;23.282;2023-07-09T04:37:45;8.57;;;5.10;;
6463;SDS011;3265;42.694;23.282;2023-07-09T04:40:11;16.05;;;5.75;;
6463;SDS011;3265;42.694;23.282;2023-07-09T04:42:39;8.85;;;5.28;;
6463;SDS011;3265;42.694;23.282;2023-07-09T04:45:08;10.75;;;5.38;;
6463;SDS011;3265;42.694;23.282;2023-07-09T04:47:37;10.95;;;4.85;;
6463;SDS011;3265;42.694;23.282;2023-07-09T04:50:06;11.25;;;4.78;;
6463;SDS011;3265;42.694;23.282;2023-07-09T04:52:34;9.60;;;5.88;;
6463;SDS011;3265;42.694;23.282;2023-07-09T04:55:01;10.10;;;5.97;;
6463;SDS011;3265;42.694;23.282;2023-07-09T04:57:28;12.07;;;5.30;;
6463;SDS011;3265;42.694;23.282;2023-07-09T04:59:55;8.45;;;5.47;;
6463;SDS011;3265;42.694;23.282;2023-07-09T05:02:23;8.93;;;4.90;;
6463;SDS011;3265;42.694;23.282;2023-07-09T05:04:50;8.70;;;4.78;;
6463;SDS011;3265;42.694;23.282;2023-07-09T05:07:17;12.00;;;4.63;;
6463;SDS011;3265;42.694;23.282;2023-07-09T05:09:44;13.30;;;5.57;;
6463;SDS011;3265;42.694;23.282;2023-07-09T05:12:11;9.93;;;5.00;;
6463;SDS011;3265;42.694;23.282;2023-07-09T05:14:38;11.55;;;5.45;;
6463;SDS011;3265;42.694;23.282;2023-07-09T05:17:05;9.90;;;4.78;;
6463;SDS011;3265;42.694;23.282;2023-07-09T05:19:34;11.45;;;5.00;;
6463;SDS011;3265;42.694;23.282;2023-07-09T05:22:02;8.25;;;4.70;;
6463;SDS011;3265;42.694;23.282;2023-07-09T05:24:29;7.78;;;4.43;;
6463;SDS011;3265;42.694;23.282;2023-07-09T05:26:56;11.95;;;4.57;;
6463;SDS011;3265;42.694;23.282;2023-07-09T05:29:24;8.32;;;4.88;;
6463;SDS011;3265;42.694;23.282;2023-07-09T05:31:51;8.30;;;4.70;;
6463;SDS011;3265;42.694;23.282;2023-07-09T05:34:18;8.30;;;4.70;;
6463;SDS011;3265;42.694;23.282;2023-07-09T05:36:47;8.02;;;4.50;;
6463;SDS011;3265;42.694;23.282;2023-07-09T05:39:14;8.95;;;4.38;;
6463;SDS011;3265;42.694;23.282;2023-07-09T05:41:42;10.40;;;5.20;;
6463;SDS011;3265;42.694;23.282;2023-07-09T05:44:08;8.65;;;4.53;;
6463;SDS011;3265;42.694;23.282;2023-07-09T05:46:35;9.40;;;5.20;;
6463;SDS011;3265;42.694;23.282;2023-07-09T05:49:03;8.38;;;4.60;;
6463;SDS011;3265;42.694;23.282;2023-07-09T05:51:31;7.97;;;4.30;;
6463;SDS011;3265;42.694;23.282;2023-07-09T05:53:59;13.38;;;5.38;;
6463;SDS011;3265;42.694;23.282;2023-07-09T05:56:26;9.20;;;4.75;;
6463;SDS011;3265;42.694;23.282;2023-07-09T05:58:53;9.07;;;5.03;;
6463;SDS011;3265;42.694;23.282;2023-07-09T06:01:21;6.55;;;4.50;;
6463;SDS011;3265;42.694;23.282;2023-07-09T06:03:48;7.82;;;4.63;;
6463;SDS011;3265;42.694;23.282;2023-07-09T06:06:15;10.25;;;5.15;;
6463;SDS011;3265;42.694;23.282;2023-07-09T06:08:42;8.77;;;4.47;;
6463;SDS011;3265;42.694;23.282;2023-07-09T06:11:10;6.70;;;4.70;;
6463;SDS011;3265;42.694;23.282;2023-07-09T06:13:37;5.72;;;3.90;;
6463;SDS011;3265;42.694;23.282;2023-07-09T06:16:05;9.32;;;4.55;;
6463;SDS011;3265;42.694;23.282;2023-07-09T06:18:32;8.15;;;4.45;;
6463;SDS011;3265;42.694;23.282;2023-07-09T06:21:00;10.20;;;4.75;;
6463;SDS011;3265;42.694;23.282;2023-07-09T06:23:28;6.97;;;4.20;;
6463;SDS011;3265;42.694;23.282;2023-07-09T06:25:55;9.73;;;4.72;;
6463;SDS011;3265;42.694;23.282;2023-07-09T06:28:24;8.35;;;4.10;;
6463;SDS011;3265;42.694;23.282;2023-07-09T06:30:54;7.63;;;4.65;;
6463;SDS011;3265;42.694;23.282;2023-07-09T06:33:22;9.15;;;4.07;;
6463;SDS011;3265;42.694;23.282;2023-07-09T06:35:49;6.53;;;4.47;;
6463;SDS011;3265;42.694;23.282;2023-07-09T06:38:17;9.10;;;4.43;;
6463;SDS011;3265;42.694;23.282;2023-07-09T06:40:44;7.70;;;4.93;;
6463;SDS011;3265;42.694;23.282;2023-07-09T06:43:11;6.32;;;4.15;;
6463;SDS011;3265;42.694;23.282;2023-07-09T06:45:41;7.20;;;4.43;;
6463;SDS011;3265;42.694;23.282;2023-07-09T06:48:15;7.22;;;4.45;;
6463;SDS011;3265;42.694;23.282;2023-07-09T06:50:42;5.95;;;4.28;;
6463;SDS011;3265;42.694;23.282;2023-07-09T06:53:09;8.02;;;4.72;;
6463;SDS011;3265;42.694;23.282;2023-07-09T06:55:36;6.90;;;4.60;;
6463;SDS011;3265;42.694;23.282;2023-07-09T06:58:02;12.55;;;4.25;;
6463;SDS011;3265;42.694;23.282;2023-07-09T07:00:29;13.18;;;5.03;;
6463;SDS011;3265;42.694;23.282;2023-07-09T07:02:57;11.77;;;4.40;;
6463;SDS011;3265;42.694;23.282;2023-07-09T07:05:24;9.48;;;4.30;;
6463;SDS011;3265;42.694;23.282;2023-07-09T07:07:51;7.28;;;4.43;;
6463;SDS011;3265;42.694;23.282;2023-07-09T07:10:19;7.72;;;4.28;;
6463;SDS011;3265;42.694;23.282;2023-07-09T07:12:46;8.25;;;4.50;;
6463;SDS011;3265;42.694;23.282;2023-07-09T07:15:14;5.18;;;4.18;;
6463;SDS011;3265;42.694;23.282;2023-07-09T07:17:43;7.70;;;4.20;;
6463;SDS011;3265;42.694;23.282;2023-07-09T07:20:12;6.03;;;4.20;;
6463;SDS011;3265;42.694;23.282;2023-07-09T07:22:40;8.07;;;4.53;;
6463;SDS011;3265;42.694;23.282;2023-07-09T07:25:07;6.95;;;5.10;;
6463;SDS011;3265;42.694;23.282;2023-07-09T07:27:34;10.68;;;4.00;;
6463;SDS011;3265;42.694;23.282;2023-07-09T07:30:01;5.57;;;4.07;;
6463;SDS011;3265;42.694;23.282;2023-07-09T07:32:28;6.70;;;4.30;;
6463;SDS011;3265;42.694;23.282;2023-07-09T07:34:55;8.68;;;4.28;;
6463;SDS011;3265;42.694;23.282;2023-07-09T07:37:23;7.57;;;4.60;;
6463;SDS011;3265;42.694;23.282;2023-07-09T07:39:50;7.60;;;4.10;;
6463;SDS011;3265;42.694;23.282;2023-07-09T07:42:16;10.65;;;4.25;;
6463;SDS011;3265;42.694;23.282;2023-07-09T07:44:44;5.43;;;4.05;;
6463;SDS011;3265;42.694;23.282;2023-07-09T07:47:11;8.30;;;4.90;;
6463;SDS011;3265;42.694;23.282;2023-07-09T07:49:38;8.27;;;4.50;;
6463;SDS011;3265;42.694;23.282;2023-07-09T07:52:06;4.50;;;3.80;;
6463;SDS011;3265;42.694;23.282;2023-07-09T07:54:35;10.38;;;4.15;;
6463;SDS011;3265;42.694;23.282;2023-07-09T07:57:02;6.55;;;4.50;;
6463;SDS011;3265;42.694;23.282;2023-07-09T07:59:29;7.30;;;4.53;;
6463;SDS011;3265;42.694;23.282;2023-07-09T08:01:59;6.82;;;4.45;;
6463;SDS011;3265;42.694;23.282;2023-07-09T08:04:26;13.32;;;4.93;;
6463;SDS011;3265;42.694;23.282;2023-07-09T08:06:53;8.32;;;4.88;;
6463;SDS011;3265;42.694;23.282;2023-07-09T08:09:21;8.75;;;4.45;;
6463;SDS011;3265;42.694;23.282;2023-07-09T08:11:49;7.38;;;4.20;;
6463;SDS011;3265;42.694;23.282;2023-07-09T08:14:16;7.50;;;4.00;;
6463;SDS011;3265;42.694;23.282;2023-07-09T08:16:43;8.65;;;4.40;;
6463;SDS011;3265;42.694;23.282;2023-07-09T08:19:11;7.55;;;4.43;;
6463;SDS011;3265;42.694;23.282;2023-07-09T08:21:37;7.30;;;4.20;;
6463;SDS011;3265;42.694;23.282;2023-07-09T08:24:05;6.53;;;4.45;;
6463;SDS011;3265;42.694;23.282;2023-07-09T08:26:32;8.15;;;4.20;;
6463;SDS011;3265;42.694;23.282;2023-07-09T08:29:01;7.72;;;4.38;;
6463;SDS011;3265;42.694;23.282;2023-07-09T08:31:27;5.13;;;3.95;;
6463;SDS011;3265;42.694;23.282;2023-07-09T08:33:54;9.05;;;4.30;;
6463;SDS011;3265;42.694;23.282;2023-07-09T08:36:25;7.03;;;3.88;;
6463;SDS011;3265;42.694;23.282;2023-07-09T08:38:53;6.28;;;4.72;;
6463;SDS011;3265;42.694;23.282;2023-07-09T08:41:24;8.20;;;4.43;;
6463;SDS011;3265;42.694;23.282;2023-07-09T08:44:03;5.60;;;4.35;;
6463;SDS011;3265;42.694;23.282;2023-07-09T08:46:43;6.78;;;4.40;;
6463;SDS011;3265;42.694;23.282;2023-07-09T08:49:21;8.55;;;4.60;;
6463;SDS011;3265;42.694;23.282;2023-07-09T08:51:57;11.20;;;4.72;;
6463;SDS011;3265;42.694;23.282;2023-07-09T08:54:26;6.40;;;4.43;;
6463;SDS011;3265;42.694;23.282;2023-07-09T08:56:56;6.03;;;4.65;;
6463;SDS011;3265;42.694;23.282;2023-07-09T08:59:28;6.95;;;4.00;;
6463;SDS011;3265;42.694;23.282;2023-07-09T09:01:57;8.75;;;4.88;;
6463;SDS011;3265;42.694;23.282;2023-07-09T09:04:27;7.72;;;4.82;;
6463;SDS011;3265;42.694;23.282;2023-07-09T09:06:58;7.50;;;5.22;;
6463;SDS011;3265;42.694;23.282;2023-07-09T09:09:33;10.70;;;5.38;;
6463;SDS011;3265;42.694;23.282;2023-07-09T09:12:09;26.20;;;13.57;;
6463;SDS011;3265;42.694;23.282;2023-07-09T09:14:43;8.88;;;5.75;;
6463;SDS011;3265;42.694;23.282;2023-07-09T09:17:16;8.48;;;5.20;;
6463;SDS011;3265;42.694;23.282;2023-07-09T09:19:46;7.68;;;5.00;;
6463;SDS011;3265;42.694;23.282;2023-07-09T09:22:21;21.13;;;6.55;;
6463;SDS011;3265;42.694;23.282;2023-07-09T09:24:54;13.77;;;5.10;;
6463;SDS011;3265;42.694;23.282;2023-07-09T09:27:24;7.80;;;4.70;;
6463;SDS011;3265;42.694;23.282;2023-07-09T09:29:53;9.35;;;4.65;;
6463;SDS011;3265;42.694;23.282;2023-07-09T09:32:21;6.75;;;4.72;;
6463;SDS011;3265;42.694;23.282;2023-07-09T09:34:51;7.82;;;4.47;;
6463;SDS011;3265;42.694;23.282;2023-07-09T09:37:28;7.78;;;4.30;;
6463;SDS011;3265;42.694;23.282;2023-07-09T09:39:58;6.40;;;4.90;;
6463;SDS011;3265;42.694;23.282;2023-07-09T09:42:26;7.68;;;5.30;;
6463;SDS011;3265;42.694;23.282;2023-07-09T09:44:54;5.75;;;4.07;;
6463;SDS011;3265;42.694;23.282;2023-07-09T09:47:21;9.27;;;4.57;;
6463;SDS011;3265;42.694;23.282;2023-07-09T09:49:52;6.28;;;4.50;;
6463;SDS011;3265;42.694;23.282;2023-07-09T09:52:19;5.93;;;4.82;;
6463;SDS011;3265;42.694;23.282;2023-07-09T09:54:54;5.50;;;4.30;;
6463;SDS011;3265;42.694;23.282;2023-07-09T09:57:30;4.68;;;4.15;;
6463;SDS011;3265;42.694;23.282;2023-07-09T09:59:58;7.45;;;4.22;;
6463;SDS011;3265;42.694;23.282;2023-07-09T10:02:25;8.75;;;4.70;;
6463;SDS011;3265;42.694;23.282;2023-07-09T10:04:52;5.75;;;3.85;;
6463;SDS011;3265;42.694;23.282;2023-07-09T10:07:21;6.00;;;4.18;;
6463;SDS011;3265;42.694;23.282;2023-07-09T10:09:54;7.57;;;4.18;;
6463;SDS011;3265;42.694;23.282;2023-07-09T10:12:32;5.32;;;4.15;;
6463;SDS011;3265;42.694;23.282;2023-07-09T10:15:16;7.70;;;4.28;;
6463;SDS011;3265;42.694;23.282;2023-07-09T10:17:54;6.15;;;4.25;;
6463;SDS011;3265;42.694;23.282;2023-07-09T10:20:30;7.88;;;3.90;;
6463;SDS011;3265;42.694;23.282;2023-07-09T10:23:02;5.03;;;3.85;;
6463;SDS011;3265;42.694;23.282;2023-07-09T10:25:45;30.55;;;5.40;;
6463;SDS011;3265;42.694;23.282;2023-07-09T10:28:21;25.80;;;4.60;;
6463;SDS011;3265;42.694;23.282;2023-07-09T10:31:15;47.95;;;6.53;;
6463;SDS011;3265;42.694;23.282;2023-07-09T10:33:55;20.85;;;5.03;;
6463;SDS011;3265;42.694;23.282;2023-07-09T10:36:31;8.13;;;4.22;;
6463;SDS011;3265;42.694;23.282;2023-07-09T10:39:12;5.95;;;3.95;;
6463;SDS011;3265;42.694;23.282;2023-07-09T10:41:44;4.68;;;3.60;;
6463;SDS011;3265;42.694;23.282;2023-07-09T10:44:23;7.95;;;4.22;;
6463;SDS011;3265;42.694;23.282;2023-07-09T10:47:02;5.50;;;3.72;;
6463;SDS011;3265;42.694;23.282;2023-07-09T10:49:34;5.00;;;3.67;;
6463;SDS011;3265;42.694;23.282;2023-07-09T10:52:05;5.78;;;3.83;;
6463;SDS011;3265;42.694;23.282;2023-07-09T10:54:34;4.35;;;3.50;;
6463;SDS011;3265;42.694;23.282;2023-07-09T10:57:12;4.45;;;3.70;;
6463;SDS011;3265;42.694;23.282;2023-07-09T10:59:48;5.05;;;3.85;;
6463;SDS011;3265;42.694;23.282;2023-07-09T11:02:19;5.65;;;3.42;;
6463;SDS011;3265;42.694;23.282;2023-07-09T11:04:51;6.70;;;3.90;;
6463;SDS011;3265;42.694;23.282;2023-07-09T11:07:22;5.13;;;3.50;;
6463;SDS011;3265;42.694;23.282;2023-07-09T11:09:53;5.63;;;3.70;;
6463;SDS011;3265;42.694;23.282;2023-07-09T11:12:27;4.38;;;3.40;;
6463;SDS011;3265;42.694;23.282;2023-07-09T11:14:58;7.97;;;3.97;;
6463;SDS011;3265;42.694;23.282;2023-07-09T11:17:31;6.38;;;3.60;;
6463;SDS011;3265;42.694;23.282;2023-07-09T11:20:00;5.50;;;3.78;;
6463;SDS011;3265;42.694;23.282;2023-07-09T11:22:37;9.88;;;3.22;;
6463;SDS011;3265;42.694;23.282;2023-07-09T11:25:06;7.45;;;3.92;;
6463;SDS011;3265;42.694;23.282;2023-07-09T11:27:44;5.97;;;3.40;;
6463;SDS011;3265;42.694;23.282;2023-07-09T11:30:19;8.60;;;3.45;;
6463;SDS011;3265;42.694;23.282;2023-07-09T11:32:53;5.15;;;3.83;;
6463;SDS011;3265;42.694;23.282;2023-07-09T11:35:23;5.47;;;4.35;;
6463;SDS011;3265;42.694;23.282;2023-07-09T11:37:51;5.47;;;3.70;;
6463;SDS011;3265;42.694;23.282;2023-07-09T11:40:19;7.45;;;3.42;;
6463;SDS011;3265;42.694;23.282;2023-07-09T11:42:52;7.10;;;3.92;;
6463;SDS011;3265;42.694;23.282;2023-07-09T11:45:21;4.50;;;3.75;;
6463;SDS011;3265;42.694;23.282;2023-07-09T11:47:55;5.07;;;3.72;;
6463;SDS011;3265;42.694;23.282;2023-07-09T11:50:30;4.95;;;3.80;;
6463;SDS011;3265;42.694;23.282;2023-07-09T11:53:01;7.85;;;3.85;;
6463;SDS011;3265;42.694;23.282;2023-07-09T11:55:33;6.05;;;3.85;;
6463;SDS011;3265;42.694;23.282;2023-07-09T11:58:08;9.95;;;4.43;;
6463;SDS011;3265;42.694;23.282;2023-07-09T12:00:37;4.47;;;3.60;;
6463;SDS011;3265;42.694;23.282;2023-07-09T12:03:20;7.28;;;4.10;;
6463;SDS011;3265;42.694;23.282;2023-07-09T12:05:51;6.22;;;3.60;;
6463;SDS011;3265;42.694;23.282;2023-07-09T12:08:20;5.85;;;3.88;;
6463;SDS011;3265;42.694;23.282;2023-07-09T12:10:52;5.13;;;3.40;;
6463;SDS011;3265;42.694;23.282;2023-07-09T12:13:20;4.97;;;3.95;;
6463;SDS011;3265;42.694;23.282;2023-07-09T12:15:47;6.82;;;3.97;;
6463;SDS011;3265;42.694;23.282;2023-07-09T12:18:15;5.15;;;3.75;;
6463;SDS011;3265;42.694;23.282;2023-07-09T12:20:45;4.47;;;3.42;;
6463;SDS011;3265;42.694;23.282;2023-07-09T12:23:18;8.23;;;3.47;;
6463;SDS011;3265;42.694;23.282;2023-07-09T12:25:48;5.15;;;3.47;;
6463;SDS011;3265;42.694;23.282;2023-07-09T12:28:17;7.53;;;4.15;;
6463;SDS011;3265;42.694;23.282;2023-07-09T12:30:45;4.85;;;3.65;;
6463;SDS011;3265;42.694;23.282;2023-07-09T12:33:16;7.13;;;4.03;;
6463;SDS011;3265;42.694;23.282;2023-07-09T12:35:44;3.85;;;3.30;;
6463;SDS011;3265;42.694;23.282;2023-07-09T12:38:16;9.20;;;3.85;;
6463;SDS011;3265;42.694;23.282;2023-07-09T12:40:48;7.68;;;3.65;;
6463;SDS011;3265;42.694;23.282;2023-07-09T12:43:19;14.05;;;3.90;;
6463;SDS011;3265;42.694;23.282;2023-07-09T12:45:58;7.07;;;4.10;;
6463;SDS011;3265;42.694;23.282;2023-07-09T12:48:27;4.97;;;3.60;;
6463;SDS011;3265;42.694;23.282;2023-07-09T12:50:56;6.38;;;4.00;;
6463;SDS011;3265;42.694;23.282;2023-07-09T12:53:25;4.70;;;3.58;;
6463;SDS011;3265;42.694;23.282;2023-07-09T12:55:54;5.82;;;3.50;;
6463;SDS011;3265;42.694;23.282;2023-07-09T12:58:23;5.07;;;3.47;;
6463;SDS011;3265;42.694;23.282;2023-07-09T13:00:52;7.28;;;3.65;;
6463;SDS011;3265;42.694;23.282;2023-07-09T13:03:21;10.18;;;3.70;;
6463;SDS011;3265;42.694;23.282;2023-07-09T13:05:53;4.78;;;3.28;;
6463;SDS011;3265;42.694;23.282;2023-07-09T13:08:22;4.40;;;3.58;;
6463;SDS011;3265;42.694;23.282;2023-07-09T13:10:52;6.28;;;3.20;;
6463;SDS011;3265;42.694;23.282;2023-07-09T13:13:20;4.03;;;3.38;;
6463;SDS011;3265;42.694;23.282;2023-07-09T13:15:49;7.28;;;3.40;;
6463;SDS011;3265;42.694;23.282;2023-07-09T13:18:22;4.97;;;3.47;;
6463;SDS011;3265;42.694;23.282;2023-07-09T13:20:50;4.70;;;3.20;;
6463;SDS011;3265;42.694;23.282;2023-07-09T13:23:21;5.97;;;3.72;;
6463;SDS011;3265;42.694;23.282;2023-07-09T13:25:50;4.18;;;3.60;;
6463;SDS011;3265;42.694;23.282;2023-07-09T13:28:20;8.32;;;4.30;;
6463;SDS011;3265;42.694;23.282;2023-07-09T13:30:52;4.93;;;3.33;;
6463;SDS011;3265;42.694;23.282;2023-07-09T13:33:20;8.15;;;3.92;;
6463;SDS011;3265;42.694;23.282;2023-07-09T13:35:46;8.40;;;3.80;;
6463;SDS011;3265;42.694;23.282;2023-07-09T13:38:16;7.22;;;3.75;;
6463;SDS011;3265;42.694;23.282;2023-07-09T13:40:45;5.32;;;3.50;;
6463;SDS011;3265;42.694;23.282;2023-07-09T13:43:13;5.90;;;3.72;;
6463;SDS011;3265;42.694;23.282;2023-07-09T13:45:42;6.95;;;3.78;;
6463;SDS011;3265;42.694;23.282;2023-07-09T13:48:12;9.10;;;3.65;;
6463;SDS011;3265;42.694;23.282;2023-07-09T13:50:41;7.03;;;3.55;;
6463;SDS011;3265;42.694;23.282;2023-07-09T13:53:11;8.15;;;3.97;;
6463;SDS011;3265;42.694;23.282;2023-07-09T13:55:43;5.60;;;3.55;;
6463;SDS011;3265;42.694;23.282;2023-07-09T13:58:11;4.45;;;3.60;;
6463;SDS011;3265;42.694;23.282;2023-07-09T14:00:39;6.25;;;3.70;;
6463;SDS011;3265;42.694;23.282;2023-07-09T14:03:10;7.32;;;3.97;;
6463;SDS011;3265;42.694;23.282;2023-07-09T14:05:41;5.90;;;3.75;;
6463;SDS011;3265;42.694;23.282;2023-07-09T14:08:08;6.00;;;3.78;;
6463;SDS011;3265;42.694;23.282;2023-07-09T14:10:35;3.65;;;3.35;;
6463;SDS011;3265;42.694;23.282;2023-07-09T14:13:04;9.20;;;3.58;;
6463;SDS011;3265;42.694;23.282;2023-07-09T14:15:31;5.43;;;3.45;;
6463;SDS011;3265;42.694;23.282;2023-07-09T14:17:58;8.95;;;4.07;;
6463;SDS011;3265;42.694;23.282;2023-07-09T14:20:25;11.95;;;4.00;;
6463;SDS011;3265;42.694;23.282;2023-07-09T14:22:54;5.28;;;3.40;;
6463;SDS011;3265;42.694;23.282;2023-07-09T14:25:21;8.80;;;3.75;;
6463;SDS011;3265;42.694;23.282;2023-07-09T14:27:50;7.40;;;3.28;;
6463;SDS011;3265;42.694;23.282;2023-07-09T14:30:20;9.65;;;3.67;;
6463;SDS011;3265;42.694;23.282;2023-07-09T14:32:49;7.20;;;3.63;;
6463;SDS011;3265;42.694;23.282;2023-07-09T14:35:18;7.40;;;3.70;;
6463;SDS011;3265;42.694;23.282;2023-07-09T14:37:47;7.00;;;3.30;;
6463;SDS011;3265;42.694;23.282;2023-07-09T14:40:15;7.38;;;3.60;;
6463;SDS011;3265;42.694;23.282;2023-07-09T14:42:45;4.70;;;3.45;;
6463;SDS011;3265;42.694;23.282;2023-07-09T14:45:17;7.35;;;3.40;;
6463;SDS011;3265;42.694;23.282;2023-07-09T14:47:47;7.55;;;3.40;;
6463;SDS011;3265;42.694;23.282;2023-07-09T14:50:14;4.93;;;3.10;;
6463;SDS011;3265;42.694;23.282;2023-07-09T14:52:41;9.02;;;3.45;;
6463;SDS011;3265;42.694;23.282;2023-07-09T14:55:13;8.25;;;3.47;;
6463;SDS011;3265;42.694;23.282;2023-07-09T14:57:41;4.95;;;3.42;;
6463;SDS011;3265;42.694;23.282;2023-07-09T15:00:12;5.28;;;3.47;;
6463;SDS011;3265;42.694;23.282;2023-07-09T15:02:42;6.80;;;3.78;;
6463;SDS011;3265;42.694;23.282;2023-07-09T15:05:12;7.07;;;3.85;;
6463;SDS011;3265;42.694;23.282;2023-07-09T15:07:41;7.93;;;3.45;;
6463;SDS011;3265;42.694;23.282;2023-07-09T15:10:12;6.53;;;3.35;;
6463;SDS011;3265;42.694;23.282;2023-07-09T15:12:39;7.63;;;3.83;;